Muito nublado (5-7 oitavos)
http://www.flightutilities.com

QR Code
SBPL 231100Z 19013KT 9999 BKN030 23/17 Q1019

Localidade: SBPL
PETROLINA - BRAZIL (PE)
Latitude: 09°21'54"S - Longitude: 040°33'59"W.
Declinação magnética: 22,59°W
Amanhecer: 08:49 UTC
Por do sol: 20:41 UTC
Boletim do: 23, as 11:00 UTC
quarta-feira 23 agosto 2017 11:00 horário de Greenwich (Zulu).
Vento: direção = 190 graus, velocidade: 13 nôs (24 km/h) (7 m/s).
Pista 13, comprimento 9843 pés, altitude 1249 pés: Vento ao través 13 KT dereita - Vento eixo pista 2 KT frontal.
Pista 31, comprimento 9843 pés, altitude 1259 pés: Vento ao través 13 KT esquerda - Vento eixo pista 2 KT de cauda.
Visibilidade horizontal minima: 10 km ou mais.
Nuvens: Muito nublado (5-7 oitavos), a 3000 pés acima do Aeródromo (914 metros).
Temperatura: 23 graus Celsius (73 Fahrenheit). Ponto de orvalho: 17 graus Celsius (63 Fahrenheit). Umidade relativa 69,01 %.
QNH (pressão ao nível do mar): 1019 hPa (30,09 polegadas).
0:54
Confiabilidade do Metar - Tempo de emissão em horas e minutos
NOAA
Marginal Visual Flight Rules
13 KT
Vento
23/17
Temperatura / Ponto de orvalho
>10Km
Visibilidade horizontal minima
3000
Muito nublado (5-7 oitavos)
1019
Pressão ao nível do mar
22,59°W
Declinação magnética
08:49 Z
Amanhecer
20:41 Z
Por do sol
Mapa
Ver no Google Maps